createdAt,value
2018-07-19T00:00:41.799Z,20.00
2018-07-19T00:03:09.250Z,20.00
2018-07-19T00:05:37.840Z,19.90
2018-07-19T00:13:00.312Z,20.10
2018-07-19T00:17:55.306Z,20.00
2018-07-19T00:22:50.286Z,20.10
2018-07-19T00:25:17.755Z,20.00
2018-07-19T00:27:45.226Z,20.00
2018-07-19T00:30:12.702Z,20.00
2018-07-19T00:35:08.632Z,19.90
2018-07-19T00:37:36.079Z,19.90
2018-07-19T00:42:31.116Z,19.70
2018-07-19T00:44:58.554Z,19.70
2018-07-19T00:47:26.031Z,19.70
2018-07-19T00:52:20.941Z,19.60
2018-07-19T00:54:48.645Z,19.50
2018-07-19T00:57:16.113Z,19.50
2018-07-19T00:59:43.659Z,19.40
2018-07-19T01:02:11.215Z,19.40
2018-07-19T01:04:38.735Z,19.30
2018-07-19T01:07:06.231Z,19.30
2018-07-19T01:09:33.776Z,19.20
2018-07-19T01:12:01.247Z,19.10
2018-07-19T01:14:28.827Z,19.10
2018-07-19T01:16:56.291Z,19.00
2018-07-19T01:19:23.878Z,19.00
2018-07-19T01:21:51.423Z,18.90
2018-07-19T01:24:18.920Z,18.80
2018-07-19T01:26:46.384Z,18.70
2018-07-19T01:29:13.820Z,18.70
2018-07-19T01:31:41.298Z,18.70
2018-07-19T01:39:06.399Z,18.50
2018-07-19T01:41:47.927Z,18.50
2018-07-19T01:44:15.410Z,18.50
2018-07-19T01:46:42.943Z,18.50
2018-07-19T01:51:38.015Z,18.50
2018-07-19T01:54:05.604Z,18.50
2018-07-19T01:56:33.036Z,18.40
2018-07-19T01:59:00.540Z,18.40
2018-07-19T02:03:55.458Z,18.40
2018-07-19T02:06:22.944Z,18.30
2018-07-19T02:08:50.399Z,18.30
2018-07-19T02:11:17.868Z,18.20
2018-07-19T02:13:45.420Z,18.20
2018-07-19T02:16:12.907Z,18.20
2018-07-19T02:18:40.387Z,18.20
2018-07-19T02:23:35.354Z,18.20
2018-07-19T02:26:02.872Z,18.10
2018-07-19T02:28:30.328Z,18.20
2018-07-19T02:33:25.421Z,18.10
2018-07-19T02:35:53.004Z,18.10
2018-07-19T02:38:21.395Z,18.00
2018-07-19T02:40:48.678Z,18.00
2018-07-19T02:43:15.985Z,18.00
2018-07-19T02:45:43.241Z,17.90
2018-07-19T02:48:10.496Z,17.90
2018-07-19T02:50:37.776Z,17.90
2018-07-19T02:55:33.183Z,17.90
2018-07-19T02:58:00.421Z,17.90
2018-07-19T03:00:27.744Z,17.80
2018-07-19T03:02:54.962Z,17.80
2018-07-19T03:05:22.239Z,17.80
2018-07-19T03:07:49.531Z,17.70
2018-07-19T03:10:16.731Z,17.70
2018-07-19T03:12:43.961Z,17.70
2018-07-19T03:15:11.176Z,17.70
2018-07-19T03:17:38.431Z,17.70
2018-07-19T03:20:05.659Z,17.70
2018-07-19T03:22:32.875Z,17.70
2018-07-19T03:25:00.103Z,17.60
2018-07-19T03:27:27.336Z,17.70
2018-07-19T03:29:54.534Z,17.60
2018-07-19T03:32:21.859Z,17.60
2018-07-19T03:37:16.327Z,17.60
2018-07-19T03:39:43.530Z,17.60
2018-07-19T03:42:10.886Z,17.60
2018-07-19T03:47:05.358Z,17.60
2018-07-19T03:49:32.563Z,17.60
2018-07-19T03:51:59.820Z,17.60
2018-07-19T03:54:27.183Z,17.60
2018-07-19T03:56:54.444Z,17.60
2018-07-19T03:59:21.799Z,17.60
2018-07-19T04:01:49.120Z,17.60
2018-07-19T04:04:16.459Z,17.60
2018-07-19T04:06:43.810Z,17.50
2018-07-19T04:09:11.091Z,17.50
2018-07-19T04:11:38.423Z,17.60
2018-07-19T04:16:33.187Z,17.60
2018-07-19T04:19:00.463Z,17.70
2018-07-19T04:21:27.755Z,17.60
2018-07-19T04:23:55.052Z,17.70
2018-07-19T04:26:22.338Z,17.80
2018-07-19T04:28:49.610Z,17.70
2018-07-19T04:31:16.892Z,17.80
2018-07-19T04:33:44.158Z,17.80
2018-07-19T04:36:11.419Z,17.80
2018-07-19T04:38:38.687Z,17.80
2018-07-19T04:41:06.036Z,17.80
2018-07-19T04:43:33.307Z,17.90
2018-07-19T04:46:00.596Z,18.00
2018-07-19T04:53:22.441Z,18.10
2018-07-19T04:55:49.695Z,18.10
2018-07-19T05:00:44.145Z,18.20
2018-07-19T05:03:11.370Z,18.20
2018-07-19T05:05:38.577Z,18.30
2018-07-19T05:08:05.941Z,18.40
2018-07-19T05:10:33.238Z,18.60
2018-07-19T05:13:00.449Z,19.00
2018-07-19T05:15:27.764Z,19.20
2018-07-19T05:17:54.984Z,19.60
2018-07-19T05:20:22.261Z,19.90
2018-07-19T05:22:49.461Z,20.40
2018-07-19T05:25:16.679Z,20.80
2018-07-19T05:27:43.960Z,21.30
2018-07-19T05:30:11.319Z,21.70
2018-07-19T05:32:38.534Z,22.30
2018-07-19T05:35:05.783Z,22.80
2018-07-19T05:37:32.990Z,23.30
2018-07-19T05:42:27.555Z,24.00
2018-07-19T05:44:54.728Z,24.00
2018-07-19T05:47:21.992Z,24.00
2018-07-19T05:49:49.204Z,23.80
2018-07-19T05:52:16.496Z,23.60
2018-07-19T05:54:43.733Z,23.40
2018-07-19T05:57:12.046Z,23.10
2018-07-19T06:02:06.738Z,22.70
2018-07-19T06:04:34.087Z,22.50
2018-07-19T06:07:01.464Z,22.20
2018-07-19T06:11:56.028Z,21.70
2018-07-19T06:14:23.397Z,21.60
2018-07-19T06:16:50.670Z,21.50
2018-07-19T06:19:18.043Z,21.30
2018-07-19T06:24:12.642Z,21.30
2018-07-19T06:26:40.000Z,21.30
2018-07-19T06:31:34.640Z,21.30
2018-07-19T06:34:01.931Z,21.30
2018-07-19T06:36:29.205Z,21.30
2018-07-19T06:38:56.461Z,21.20
2018-07-19T06:41:23.722Z,21.20
2018-07-19T06:46:18.651Z,21.20
2018-07-19T06:48:45.923Z,21.30
2018-07-19T06:51:13.263Z,21.40
2018-07-19T06:53:40.608Z,21.50
2018-07-19T06:56:09.835Z,21.60
2018-07-19T06:58:37.098Z,21.70
2018-07-19T07:01:04.347Z,21.70
2018-07-19T07:03:31.654Z,21.70
2018-07-19T07:05:58.891Z,21.80
2018-07-19T07:08:26.246Z,21.90
2018-07-19T07:10:53.489Z,21.90
2018-07-19T07:13:20.727Z,22.00
2018-07-19T07:15:47.944Z,22.00
2018-07-19T07:18:15.173Z,22.00
2018-07-19T07:20:43.728Z,22.00
2018-07-19T07:23:11.204Z,22.10
2018-07-19T07:25:50.346Z,22.30
2018-07-19T07:28:19.341Z,22.50
2018-07-19T07:30:46.803Z,22.60
2018-07-19T07:33:14.627Z,22.60
2018-07-19T07:35:42.068Z,22.80
2018-07-19T07:38:09.555Z,22.80
2018-07-19T07:40:37.043Z,22.80
2018-07-19T07:43:05.244Z,22.80
2018-07-19T07:45:32.663Z,22.90
2018-07-19T07:48:00.180Z,23.00
2018-07-19T07:50:27.629Z,22.90
2018-07-19T07:52:55.047Z,23.10
2018-07-19T07:55:22.463Z,23.20
2018-07-19T07:57:50.010Z,23.30
2018-07-19T08:00:17.528Z,23.40
2018-07-19T08:02:45.047Z,23.50
2018-07-19T08:05:12.659Z,23.50
2018-07-19T08:10:07.710Z,23.60
2018-07-19T08:12:35.180Z,23.70
2018-07-19T08:15:02.731Z,23.90
2018-07-19T08:17:30.184Z,24.10
2018-07-19T08:19:57.635Z,24.30
2018-07-19T08:22:25.209Z,24.40
2018-07-19T08:24:52.746Z,24.40
2018-07-19T08:27:20.634Z,24.40
2018-07-19T08:29:48.079Z,24.60
2018-07-19T08:32:15.670Z,24.70
2018-07-19T08:34:43.114Z,24.80
2018-07-19T08:37:10.598Z,24.90
2018-07-19T08:39:38.131Z,25.00
2018-07-19T08:42:05.716Z,25.10
2018-07-19T08:44:33.148Z,25.10
2018-07-19T08:47:00.618Z,25.20
2018-07-19T08:49:28.086Z,25.40
2018-07-19T08:54:23.003Z,25.50
2018-07-19T08:56:50.555Z,25.50
2018-07-19T08:59:17.987Z,25.50
2018-07-19T09:06:40.439Z,25.70
2018-07-19T09:11:35.950Z,25.90
2018-07-19T09:14:03.539Z,25.90
2018-07-19T09:16:30.911Z,25.70
2018-07-19T09:18:58.322Z,25.60
2018-07-19T09:21:25.937Z,25.80
2018-07-19T09:23:53.384Z,26.10
2018-07-19T09:26:21.647Z,26.20
2018-07-19T09:28:49.067Z,26.20
2018-07-19T09:31:16.446Z,26.20
2018-07-19T09:33:43.847Z,26.30
2018-07-19T09:36:11.282Z,26.50
2018-07-19T09:38:38.765Z,26.60
2018-07-19T09:46:01.072Z,26.70
2018-07-19T09:50:56.164Z,26.90
2018-07-19T09:53:23.610Z,27.20
2018-07-19T09:55:51.094Z,27.30
2018-07-19T09:58:18.610Z,27.60
2018-07-19T10:00:51.616Z,27.70
2018-07-19T10:03:19.059Z,27.70
2018-07-19T10:05:46.585Z,27.70
2018-07-19T10:08:13.991Z,28.00
2018-07-19T10:10:41.469Z,28.20
2018-07-19T10:13:08.942Z,28.20
2018-07-19T10:15:36.376Z,28.20
2018-07-19T10:18:03.858Z,28.60
2018-07-19T10:20:31.378Z,28.80
2018-07-19T10:22:58.808Z,29.00
2018-07-19T10:25:26.339Z,29.00
2018-07-19T10:27:53.784Z,29.30
2018-07-19T10:30:21.251Z,29.60
2018-07-19T10:32:48.764Z,30.10
2018-07-19T10:37:43.671Z,30.10
2018-07-19T10:40:11.174Z,29.80
2018-07-19T10:42:38.643Z,29.20
2018-07-19T10:45:06.576Z,28.80
2018-07-19T10:47:34.143Z,28.50
2018-07-19T10:50:01.748Z,28.30
2018-07-19T10:52:29.218Z,28.40
2018-07-19T10:54:56.784Z,28.90
2018-07-19T10:59:51.698Z,29.30
2018-07-19T11:02:19.112Z,29.70
2018-07-19T11:04:46.544Z,30.20
2018-07-19T11:07:13.978Z,30.70
2018-07-19T11:09:41.429Z,31.00
2018-07-19T11:12:08.827Z,31.00
2018-07-19T11:14:36.255Z,30.50
2018-07-19T11:17:03.708Z,30.00
2018-07-19T11:19:31.112Z,29.50
2018-07-19T11:21:58.486Z,29.10
2018-07-19T11:24:25.984Z,29.10
2018-07-19T11:26:53.378Z,29.10
2018-07-19T11:29:20.796Z,29.00
2018-07-19T11:31:48.221Z,28.90
2018-07-19T11:34:15.635Z,28.60
2018-07-19T11:36:43.020Z,28.40
2018-07-19T11:41:38.293Z,28.10
2018-07-19T11:46:33.544Z,27.80
2018-07-19T11:49:00.976Z,27.60
2018-07-19T11:51:28.403Z,28.00
2018-07-19T11:53:55.789Z,28.70
2018-07-19T11:56:23.258Z,29.50
2018-07-19T11:58:50.802Z,30.20
2018-07-19T12:01:18.642Z,30.70
2018-07-19T12:06:13.583Z,31.30
2018-07-19T12:08:41.144Z,31.40
2018-07-19T12:11:08.638Z,31.70
2018-07-19T12:13:37.128Z,31.90
2018-07-19T12:16:04.670Z,31.80
2018-07-19T12:18:32.199Z,31.70
2018-07-19T12:20:59.695Z,31.30
2018-07-19T12:23:27.148Z,31.00
2018-07-19T12:25:54.680Z,30.70
2018-07-19T12:28:22.127Z,30.50
2018-07-19T12:30:49.568Z,30.70
2018-07-19T12:33:17.001Z,31.00
2018-07-19T12:35:44.492Z,30.90
2018-07-19T12:38:11.911Z,30.80
2018-07-19T12:40:39.297Z,30.60
2018-07-19T12:43:06.561Z,30.70
2018-07-19T12:45:33.983Z,31.00
2018-07-19T12:48:01.232Z,31.20
2018-07-19T12:50:28.492Z,31.50
2018-07-19T12:52:55.764Z,31.70
2018-07-19T12:55:23.041Z,31.90
2018-07-19T12:57:50.309Z,31.80
2018-07-19T13:00:17.646Z,31.80
2018-07-19T13:02:44.960Z,31.50
2018-07-19T13:05:12.227Z,31.40
2018-07-19T13:10:06.923Z,31.70
2018-07-19T13:12:34.431Z,31.90
2018-07-19T13:15:01.801Z,32.10
2018-07-19T13:17:29.264Z,32.10
2018-07-19T13:19:59.847Z,32.00
2018-07-19T13:22:27.974Z,31.60
2018-07-19T13:25:00.839Z,31.50
2018-07-19T13:27:28.896Z,31.10
2018-07-19T13:29:58.123Z,30.80
2018-07-19T13:32:25.375Z,30.80
2018-07-19T13:34:52.665Z,30.80
2018-07-19T13:39:47.468Z,31.10
2018-07-19T13:42:14.683Z,31.30
2018-07-19T13:44:41.987Z,31.20
2018-07-19T13:47:09.187Z,31.50
2018-07-19T13:49:36.395Z,31.60
2018-07-19T13:52:03.625Z,31.60
2018-07-19T13:54:38.989Z,31.70
2018-07-19T13:57:06.237Z,31.70
2018-07-19T13:59:33.480Z,31.90
2018-07-19T14:02:00.802Z,32.00
2018-07-19T14:04:28.171Z,32.30
2018-07-19T14:06:55.538Z,32.60
2018-07-19T14:09:22.747Z,32.60
2018-07-19T14:11:49.967Z,32.30
2018-07-19T14:14:17.191Z,31.80
2018-07-19T14:16:44.431Z,31.40
2018-07-19T14:19:11.679Z,31.10
2018-07-19T14:21:39.009Z,31.00
2018-07-19T14:24:06.232Z,30.60
2018-07-19T14:26:33.486Z,30.50
2018-07-19T14:29:00.720Z,30.30
2018-07-19T14:31:27.960Z,30.00
2018-07-19T14:33:55.278Z,29.80
2018-07-19T14:36:22.499Z,29.70
2018-07-19T14:38:49.708Z,29.90
2018-07-19T14:41:17.189Z,30.00
2018-07-19T14:43:44.628Z,29.80
2018-07-19T14:46:12.098Z,30.10
2018-07-19T14:48:39.594Z,30.20
2018-07-19T14:51:07.263Z,30.50
2018-07-19T14:53:34.676Z,30.70
2018-07-19T14:56:02.096Z,30.80
2018-07-19T14:58:29.601Z,30.80
2018-07-19T15:00:57.043Z,30.60
2018-07-19T15:05:52.244Z,30.20
2018-07-19T15:08:19.737Z,30.00
2018-07-19T15:10:47.167Z,29.80
2018-07-19T15:13:14.604Z,29.70
2018-07-19T15:15:42.087Z,29.50
2018-07-19T15:18:09.600Z,29.40
2018-07-19T15:23:04.782Z,29.10
2018-07-19T15:25:32.240Z,28.90
2018-07-19T15:28:00.259Z,28.70
2018-07-19T15:30:27.672Z,28.50
2018-07-19T15:32:55.363Z,28.50
2018-07-19T15:35:22.801Z,28.50
2018-07-19T15:37:50.302Z,28.50
2018-07-19T15:40:17.757Z,28.60
2018-07-19T15:42:45.223Z,28.60
2018-07-19T15:45:12.692Z,28.60
2018-07-19T15:47:40.208Z,28.60
2018-07-19T15:50:07.743Z,28.60
2018-07-19T15:52:35.279Z,28.70
2018-07-19T15:55:02.909Z,28.80
2018-07-19T15:57:30.384Z,29.00
2018-07-19T15:59:57.923Z,29.10
2018-07-19T16:02:25.447Z,29.00
2018-07-19T16:04:52.920Z,29.00
2018-07-19T16:07:20.347Z,28.90
2018-07-19T16:09:47.812Z,28.90
2018-07-19T16:12:15.287Z,28.70
2018-07-19T16:14:42.784Z,28.80
2018-07-19T16:17:10.340Z,28.80
2018-07-19T16:22:05.406Z,28.80
2018-07-19T16:24:32.935Z,28.80
2018-07-19T16:27:00.443Z,28.70
2018-07-19T16:29:27.939Z,28.70
2018-07-19T16:31:55.535Z,28.70
2018-07-19T16:34:23.109Z,28.80
2018-07-19T16:36:50.559Z,28.80
2018-07-19T16:39:18.043Z,28.80
2018-07-19T16:41:45.583Z,28.80
2018-07-19T16:44:13.110Z,28.80
2018-07-19T16:46:40.646Z,28.80
2018-07-19T16:49:08.092Z,28.70
2018-07-19T16:51:35.590Z,28.70
2018-07-19T16:54:03.120Z,28.60
2018-07-19T16:56:30.712Z,28.60
2018-07-19T16:58:59.224Z,28.60
2018-07-19T17:01:26.674Z,28.50
2018-07-19T17:03:54.240Z,28.50
2018-07-19T17:06:21.775Z,28.50
2018-07-19T17:08:49.247Z,28.50
2018-07-19T17:11:16.775Z,28.60
2018-07-19T17:13:44.232Z,28.60
2018-07-19T17:16:11.670Z,28.70
2018-07-19T17:18:42.025Z,28.70
2018-07-19T17:21:09.540Z,28.70
2018-07-19T17:23:36.974Z,28.60
2018-07-19T17:26:04.513Z,28.70
2018-07-19T17:28:31.981Z,28.60
2018-07-19T17:30:59.419Z,28.60
2018-07-19T17:33:26.925Z,28.60
2018-07-19T17:35:54.479Z,28.60
2018-07-19T17:38:21.979Z,28.40
2018-07-19T17:40:49.423Z,28.40
2018-07-19T17:43:16.898Z,28.50
2018-07-19T17:45:44.330Z,28.50
2018-07-19T17:48:11.840Z,28.50
2018-07-19T17:50:39.297Z,28.50
2018-07-19T17:53:06.760Z,28.50
2018-07-19T17:55:34.195Z,28.40
2018-07-19T17:58:01.597Z,28.30
2018-07-19T18:00:29.141Z,28.20
2018-07-19T18:02:56.905Z,28.10
2018-07-19T18:05:24.382Z,28.10
2018-07-19T18:07:51.868Z,28.10
2018-07-19T18:10:19.406Z,28.00
2018-07-19T18:12:46.840Z,28.00
2018-07-19T18:15:14.320Z,28.00
2018-07-19T18:17:41.841Z,27.90
2018-07-19T18:20:13.331Z,27.90
2018-07-19T18:22:40.807Z,27.80
2018-07-19T18:25:08.223Z,27.80
2018-07-19T18:27:36.155Z,27.70
2018-07-19T18:30:04.966Z,27.70
2018-07-19T18:32:32.516Z,27.70
2018-07-19T18:34:59.916Z,27.60
2018-07-19T18:37:27.307Z,27.60
2018-07-19T18:39:54.821Z,27.60
2018-07-19T18:42:23.279Z,27.50
2018-07-19T18:44:50.737Z,27.50
2018-07-19T18:47:19.225Z,27.50
2018-07-19T18:49:46.688Z,27.40
2018-07-19T18:52:14.392Z,27.30
2018-07-19T18:54:41.899Z,27.30
2018-07-19T18:57:09.874Z,27.30
2018-07-19T18:59:38.346Z,27.20
2018-07-19T19:02:06.828Z,27.20
2018-07-19T19:04:34.260Z,27.10
2018-07-19T19:07:01.748Z,27.00
2018-07-19T19:09:30.227Z,27.00
2018-07-19T19:11:58.791Z,27.00
2018-07-19T19:14:27.292Z,26.90
2018-07-19T19:16:54.847Z,26.90
2018-07-19T19:19:23.498Z,26.80
2018-07-19T19:21:52.067Z,26.80
2018-07-19T19:24:19.476Z,26.70
2018-07-19T19:26:48.125Z,26.60
2018-07-19T19:29:15.707Z,26.60
2018-07-19T19:31:43.143Z,26.50
2018-07-19T19:34:10.664Z,26.50
2018-07-19T19:36:38.199Z,26.40
2018-07-19T19:39:07.145Z,26.40
2018-07-19T19:41:34.713Z,26.30
2018-07-19T19:44:02.122Z,26.20
2018-07-19T19:46:29.754Z,26.20
2018-07-19T19:48:58.440Z,26.20
2018-07-19T19:51:25.947Z,26.10
2018-07-19T19:53:53.459Z,26.00
2018-07-19T19:56:20.868Z,25.90
2018-07-19T19:58:48.300Z,25.70
2018-07-19T20:03:44.433Z,25.50
2018-07-19T20:06:12.107Z,25.40
2018-07-19T20:11:09.114Z,25.20
2018-07-19T20:16:05.336Z,25.00
2018-07-19T20:18:33.007Z,24.90
2018-07-19T20:21:01.485Z,24.80
2018-07-19T20:23:29.064Z,24.60
2018-07-19T20:25:57.640Z,24.60
2018-07-19T20:28:25.307Z,24.40
2018-07-19T20:30:54.819Z,24.40
2018-07-19T20:33:23.383Z,24.30
2018-07-19T20:35:51.044Z,24.30
2018-07-19T20:38:19.472Z,24.20
2018-07-19T20:40:46.957Z,24.10
2018-07-19T20:43:15.153Z,24.00
2018-07-19T20:45:42.732Z,24.00
2018-07-19T20:50:38.875Z,23.70
2018-07-19T20:53:06.385Z,23.70
2018-07-19T20:55:33.907Z,23.60
2018-07-19T20:58:02.411Z,23.60
2018-07-19T21:00:29.868Z,23.50
2018-07-19T21:02:58.367Z,23.50
2018-07-19T21:05:25.823Z,23.40
2018-07-19T21:07:53.355Z,23.30
2018-07-19T21:10:21.854Z,23.30
2018-07-19T21:12:49.356Z,23.10
2018-07-19T21:15:17.003Z,23.10
2018-07-19T21:17:44.429Z,23.20
2018-07-19T21:20:12.927Z,23.20
2018-07-19T21:22:40.368Z,23.10
2018-07-19T21:25:09.951Z,23.10
2018-07-19T21:27:37.476Z,23.10
2018-07-19T21:30:05.237Z,23.20
2018-07-19T21:32:32.666Z,23.10
2018-07-19T21:35:00.324Z,23.10
2018-07-19T21:37:27.843Z,23.00
2018-07-19T21:39:55.366Z,23.00
2018-07-19T21:42:23.043Z,23.00
2018-07-19T21:47:20.193Z,23.00
2018-07-19T21:49:47.667Z,22.90
2018-07-19T21:52:15.227Z,22.90
2018-07-19T21:54:44.797Z,22.90
2018-07-19T21:57:12.345Z,22.80
2018-07-19T21:59:40.955Z,22.70
2018-07-19T22:02:10.302Z,22.70
2018-07-19T22:04:37.891Z,22.60
2018-07-19T22:09:32.941Z,22.50
2018-07-19T22:12:00.377Z,22.40
2018-07-19T22:14:27.828Z,22.30
2018-07-19T22:16:55.290Z,22.30
2018-07-19T22:19:22.883Z,22.20
2018-07-19T22:21:50.297Z,22.20
2018-07-19T22:26:45.327Z,22.10
2018-07-19T22:29:12.872Z,22.10
2018-07-19T22:34:10.739Z,22.00
2018-07-19T22:39:09.404Z,21.90
2018-07-19T22:41:36.870Z,21.80
2018-07-19T22:44:04.456Z,21.70
2018-07-19T22:48:59.350Z,21.70
2018-07-19T22:51:26.924Z,21.60
2018-07-19T22:53:54.483Z,21.50
2018-07-19T22:56:23.123Z,21.50
2018-07-19T22:58:50.600Z,21.40
2018-07-19T23:01:18.114Z,21.40
2018-07-19T23:03:45.615Z,21.30
2018-07-19T23:06:13.060Z,21.20
2018-07-19T23:08:40.487Z,21.20
2018-07-19T23:11:08.034Z,21.20
2018-07-19T23:16:02.939Z,21.00
2018-07-19T23:18:30.571Z,21.00
2018-07-19T23:20:58.031Z,21.00
2018-07-19T23:23:25.452Z,20.90
2018-07-19T23:25:52.933Z,20.90
2018-07-19T23:28:20.432Z,20.80
2018-07-19T23:30:47.911Z,20.70
2018-07-19T23:33:15.391Z,20.70
2018-07-19T23:36:00.691Z,20.70
2018-07-19T23:38:33.090Z,20.60
2018-07-19T23:41:04.344Z,20.60
2018-07-19T23:43:36.093Z,20.50
2018-07-19T23:46:09.364Z,20.40
2018-07-19T23:48:36.821Z,20.40
2018-07-19T23:51:04.401Z,20.30
2018-07-19T23:53:31.859Z,20.30
2018-07-19T23:55:59.321Z,20.20
2018-07-19T23:58:26.755Z,20.20
